Time;durP1;ratioP1;P1;durP2;ratioP2;P2;SDS_P1;SDS_P2;PMS_P1;PMS_P2;Temp;Humidity;BMP_temperature;BMP_pressure;BME280_temperature;BME280_humidity;BME280_pressure;Samples;Min_cycle;Max_cycle;Signal;HPM_P1;HPM_P2
2022/11/09 00:01:01;;;;;;;3.63;2.30;;;12.40;99.90;;;;;;496311;239;28503;-70
2022/11/09 00:03:02;;;;;;;2.30;2.10;;;12.40;99.90;;;;;;496168;239;28444;-70
2022/11/09 00:05:03;;;;;;;2.10;2.00;;;12.30;99.90;;;;;;496307;239;28821;-70
2022/11/09 00:07:04;;;;;;;2.17;2.00;;;12.30;99.90;;;;;;496312;239;28713;-70
2022/11/09 00:09:06;;;;;;;2.63;1.90;;;12.30;99.90;;;;;;496309;239;29533;-70
2022/11/09 00:11:07;;;;;;;1.97;1.87;;;12.20;99.90;;;;;;496292;239;28280;-70
2022/11/09 00:13:08;;;;;;;2.37;2.10;;;12.20;99.90;;;;;;496315;239;28202;-70
2022/11/09 00:15:09;;;;;;;2.27;2.07;;;12.20;99.90;;;;;;496307;239;28057;-70
2022/11/09 00:17:11;;;;;;;2.03;1.93;;;12.20;99.90;;;;;;496296;239;28304;-70
2022/11/09 00:19:15;;;;;;;2.80;1.97;;;12.20;99.90;;;;;;496299;239;28132;-70
2022/11/09 00:21:16;;;;;;;1.90;1.80;;;12.20;99.90;;;;;;496300;239;28361;-70
2022/11/09 00:23:17;;;;;;;1.90;1.77;;;12.20;99.90;;;;;;496306;239;28126;-70
2022/11/09 00:25:19;;;;;;;2.20;2.00;;;12.10;99.90;;;;;;496294;239;28725;-70
2022/11/09 00:27:20;;;;;;;2.07;1.90;;;12.20;99.90;;;;;;496299;239;28767;-70
2022/11/09 00:29:21;;;;;;;1.70;1.60;;;12.20;99.90;;;;;;496293;239;28949;-70
2022/11/09 00:31:22;;;;;;;2.23;1.60;;;12.20;99.90;;;;;;496302;239;28308;-71
2022/11/09 00:33:24;;;;;;;2.00;1.90;;;12.20;99.90;;;;;;496297;239;28083;-70
2022/11/09 00:35:25;;;;;;;4.17;1.80;;;12.10;99.90;;;;;;496298;239;28214;-70
2022/11/09 00:37:26;;;;;;;1.60;1.50;;;12.20;99.90;;;;;;496298;239;28249;-71
2022/11/09 00:39:28;;;;;;;2.90;1.70;;;12.10;99.90;;;;;;496291;239;28182;-70
2022/11/09 00:41:29;;;;;;;2.20;2.10;;;12.20;99.90;;;;;;496278;239;28297;-70
2022/11/09 00:43:30;;;;;;;2.20;2.00;;;12.20;99.90;;;;;;496278;239;28296;-70
2022/11/09 00:45:31;;;;;;;1.90;1.80;;;12.20;99.90;;;;;;496280;239;27990;-70
2022/11/09 00:47:32;;;;;;;2.43;2.23;;;12.20;99.90;;;;;;496290;239;28219;-71
2022/11/09 00:49:34;;;;;;;3.57;2.43;;;12.20;99.90;;;;;;496297;239;28647;-70
2022/11/09 00:51:35;;;;;;;2.17;1.97;;;12.30;99.90;;;;;;496285;239;28664;-70
2022/11/09 00:53:36;;;;;;;2.30;2.10;;;12.20;99.90;;;;;;496290;239;30586;-70
2022/11/09 00:55:38;;;;;;;1.97;1.87;;;12.30;99.90;;;;;;496297;239;28269;-70
2022/11/09 00:57:39;;;;;;;2.37;2.10;;;12.30;99.90;;;;;;496310;239;28340;-70
2022/11/09 00:59:40;;;;;;;2.20;2.10;;;12.30;99.90;;;;;;496322;239;28142;-70
2022/11/09 01:01:41;;;;;;;2.97;2.67;;;12.30;99.90;;;;;;496298;239;28328;-70
2022/11/09 01:03:43;;;;;;;2.47;2.13;;;12.30;99.90;;;;;;496284;239;28215;-70
2022/11/09 01:05:44;;;;;;;2.47;2.23;;;12.30;99.90;;;;;;496292;239;28240;-70
2022/11/09 01:07:45;;;;;;;3.83;1.90;;;12.30;99.90;;;;;;496287;239;28258;-70
2022/11/09 01:09:46;;;;;;;2.20;2.00;;;12.30;99.90;;;;;;496280;239;28397;-71
2022/11/09 01:11:48;;;;;;;2.47;2.10;;;12.30;99.90;;;;;;496298;239;28328;-71
2022/11/09 01:13:49;;;;;;;2.33;2.10;;;12.30;99.90;;;;;;496322;239;29115;-70
2022/11/09 01:15:50;;;;;;;2.50;1.97;;;12.30;99.90;;;;;;496323;239;28682;-70
2022/11/09 01:17:51;;;;;;;2.33;2.13;;;12.20;99.90;;;;;;496336;239;28958;-71
2022/11/09 01:19:53;;;;;;;2.50;2.00;;;12.20;99.90;;;;;;496335;239;28413;-70
2022/11/09 01:21:54;;;;;;;2.80;2.17;;;12.20;99.90;;;;;;496352;239;28056;-70
2022/11/09 01:23:57;;;;;;;1.70;1.60;;;12.20;99.90;;;;;;496303;239;28057;-72
2022/11/09 01:25:57;;;;;;;2.13;1.70;;;12.20;99.90;;;;;;496221;239;28066;-70
2022/11/09 01:27:58;;;;;;;5.90;1.53;;;12.20;99.90;;;;;;496210;239;28083;-70
2022/11/09 01:29:59;;;;;;;2.13;1.60;;;12.10;99.90;;;;;;496308;239;28074;-70
2022/11/09 01:32:00;;;;;;;1.90;1.80;;;12.10;99.90;;;;;;496310;239;28171;-70
2022/11/09 01:34:01;;;;;;;1.60;1.40;;;12.10;99.90;;;;;;496298;239;28127;-71
2022/11/09 01:36:03;;;;;;;1.57;1.47;;;12.10;99.90;;;;;;496329;239;28054;-70
2022/11/09 01:38:04;;;;;;;2.20;1.73;;;12.10;99.90;;;;;;496317;239;28067;-70
2022/11/09 01:40:05;;;;;;;2.30;1.73;;;12.10;99.90;;;;;;496342;239;28577;-70
2022/11/09 01:42:06;;;;;;;1.73;1.63;;;12.10;99.90;;;;;;496311;239;28636;-70
2022/11/09 01:44:08;;;;;;;2.40;1.90;;;12.10;99.90;;;;;;496339;239;28718;-71
2022/11/09 01:46:09;;;;;;;2.00;1.90;;;12.10;99.90;;;;;;496335;239;28133;-70
2022/11/09 01:48:10;;;;;;;1.53;1.43;;;12.10;99.90;;;;;;496319;239;28207;-70
2022/11/09 01:50:11;;;;;;;1.60;1.50;;;12.00;99.90;;;;;;496335;239;28453;-70
2022/11/09 01:52:13;;;;;;;3.00;2.23;;;12.00;99.90;;;;;;496226;239;28094;-70
2022/11/09 01:54:14;;;;;;;3.40;2.20;;;12.00;99.90;;;;;;496323;239;28084;-70
2022/11/09 01:56:15;;;;;;;1.87;1.73;;;12.00;99.90;;;;;;496340;239;28078;-70
2022/11/09 01:58:16;;;;;;;2.30;1.70;;;12.00;99.90;;;;;;496252;239;28296;-70
2022/11/09 02:00:18;;;;;;;2.50;1.83;;;12.00;99.90;;;;;;496333;239;27994;-70
2022/11/09 02:02:19;;;;;;;1.87;1.77;;;12.00;99.90;;;;;;496329;239;28323;-70
2022/11/09 02:04:20;;;;;;;3.20;2.33;;;12.00;99.90;;;;;;496323;239;28687;-71
2022/11/09 02:06:21;;;;;;;1.73;1.63;;;12.00;99.90;;;;;;496305;239;28968;-70
2022/11/09 02:08:23;;;;;;;1.50;1.40;;;12.00;99.90;;;;;;496310;239;28535;-70
2022/11/09 02:10:24;;;;;;;1.60;1.50;;;12.00;99.90;;;;;;496323;239;28194;-70
2022/11/09 02:12:25;;;;;;;1.30;1.20;;;11.90;99.90;;;;;;496339;239;28183;-70
2022/11/09 02:14:26;;;;;;;1.50;1.40;;;11.90;99.90;;;;;;496314;239;28175;-70
2022/11/09 02:16:28;;;;;;;1.53;1.43;;;11.90;99.90;;;;;;496314;239;28028;-70
2022/11/09 02:18:29;;;;;;;1.60;1.50;;;11.90;99.90;;;;;;496310;239;27925;-70
2022/11/09 02:20:30;;;;;;;1.83;1.50;;;11.90;99.90;;;;;;496318;239;28086;-70
2022/11/09 02:22:33;;;;;;;2.47;1.20;;;11.90;99.90;;;;;;496294;239;28544;-70
2022/11/09 02:24:33;;;;;;;1.30;1.30;;;11.90;99.90;;;;;;496220;239;28202;-70
2022/11/09 02:26:34;;;;;;;1.30;1.20;;;11.90;99.90;;;;;;496306;239;28187;-70
2022/11/09 02:28:35;;;;;;;1.40;1.40;;;11.90;99.90;;;;;;496309;239;28553;-70
2022/11/09 02:30:36;;;;;;;1.50;1.40;;;11.90;99.90;;;;;;496334;239;28715;-71
2022/11/09 02:32:38;;;;;;;1.50;1.50;;;11.90;99.90;;;;;;496326;239;28576;-70
2022/11/09 02:34:39;;;;;;;1.30;1.20;;;11.90;99.90;;;;;;496314;239;28683;-70
2022/11/09 02:36:42;;;;;;;1.43;1.33;;;11.90;99.90;;;;;;496293;239;28065;-70
2022/11/09 02:38:41;;;;;;;1.60;1.50;;;11.90;99.90;;;;;;496197;239;28826;-70
2022/11/09 02:40:43;;;;;;;1.67;1.60;;;11.90;99.90;;;;;;496315;239;27981;-71
2022/11/09 02:42:44;;;;;;;2.07;1.80;;;11.90;99.90;;;;;;496310;239;27959;-70
2022/11/09 02:44:45;;;;;;;2.07;1.93;;;11.90;99.90;;;;;;496303;239;28207;-70
2022/11/09 02:46:46;;;;;;;1.63;1.53;;;11.90;99.90;;;;;;496314;239;28078;-70
2022/11/09 02:48:48;;;;;;;1.60;1.50;;;11.90;99.90;;;;;;496314;239;28069;-71
2022/11/09 02:50:49;;;;;;;1.97;1.87;;;11.90;99.90;;;;;;496314;239;28053;-71
2022/11/09 02:52:50;;;;;;;1.60;1.50;;;11.90;99.90;;;;;;496314;239;28187;-70
2022/11/09 02:54:51;;;;;;;1.33;1.30;;;11.90;99.90;;;;;;496327;239;28795;-70
2022/11/09 02:56:53;;;;;;;1.47;1.37;;;11.90;99.90;;;;;;496319;239;29100;-70
2022/11/09 02:58:54;;;;;;;1.63;1.53;;;11.90;99.90;;;;;;496284;239;28515;-70
2022/11/09 03:00:55;;;;;;;1.23;1.23;;;11.90;99.90;;;;;;496165;239;27929;-71
2022/11/09 03:02:56;;;;;;;1.90;1.60;;;11.90;99.90;;;;;;496325;239;28070;-70
2022/11/09 03:04:58;;;;;;;2.50;1.50;;;11.80;99.90;;;;;;496163;239;28043;-70
2022/11/09 03:06:59;;;;;;;1.50;1.40;;;11.80;99.90;;;;;;496300;239;28120;-70
2022/11/09 03:09:00;;;;;;;1.27;1.27;;;11.90;99.90;;;;;;496310;239;28193;-70
2022/11/09 03:11:01;;;;;;;1.43;1.33;;;11.80;99.90;;;;;;496320;239;28259;-70
2022/11/09 03:13:03;;;;;;;1.33;1.23;;;11.90;99.90;;;;;;496330;239;28283;-70
2022/11/09 03:15:04;;;;;;;1.33;1.30;;;11.90;99.90;;;;;;496320;239;27987;-70
2022/11/09 03:17:05;;;;;;;1.43;1.33;;;11.90;99.90;;;;;;496323;239;27988;-71
2022/11/09 03:19:06;;;;;;;1.40;1.30;;;11.90;99.90;;;;;;496309;239;28666;-70
2022/11/09 03:21:08;;;;;;;1.43;1.43;;;11.90;99.90;;;;;;496306;239;28709;-70
2022/11/09 03:23:10;;;;;;;1.57;1.47;;;11.90;99.90;;;;;;496308;239;28550;-70
2022/11/09 03:25:10;;;;;;;2.30;1.50;;;11.90;99.90;;;;;;496291;239;28169;-71
2022/11/09 03:27:11;;;;;;;1.30;1.30;;;11.90;99.90;;;;;;496320;238;28338;-71
2022/11/09 03:29:13;;;;;;;1.20;1.20;;;11.90;99.90;;;;;;496318;239;28491;-70
2022/11/09 03:31:14;;;;;;;1.40;1.40;;;11.90;99.90;;;;;;496328;239;28508;-70
2022/11/09 03:33:15;;;;;;;1.20;1.20;;;11.90;99.90;;;;;;496334;239;27974;-70
2022/11/09 03:35:17;;;;;;;1.50;1.40;;;11.90;99.90;;;;;;496344;239;27900;-70
2022/11/09 03:37:18;;;;;;;1.43;1.33;;;11.90;99.90;;;;;;496319;239;28041;-71
2022/11/09 03:39:19;;;;;;;1.50;1.40;;;11.90;99.90;;;;;;496340;239;28003;-70
2022/11/09 03:41:20;;;;;;;1.47;1.37;;;11.90;99.90;;;;;;496331;239;28073;-70
2022/11/09 03:43:21;;;;;;;1.53;1.33;;;12.00;99.90;;;;;;496342;239;28121;-70
2022/11/09 03:45:23;;;;;;;1.40;1.30;;;11.90;99.90;;;;;;496273;239;27929;-70
2022/11/09 03:47:24;;;;;;;1.40;1.30;;;12.00;99.90;;;;;;496318;239;27974;-71
2022/11/09 03:49:25;;;;;;;2.00;1.30;;;12.00;99.90;;;;;;496314;239;28028;-70
2022/11/09 03:51:26;;;;;;;1.57;1.47;;;12.00;99.90;;;;;;496170;239;28654;-70
2022/11/09 03:53:28;;;;;;;1.53;1.50;;;11.90;99.90;;;;;;496337;239;28419;-72
2022/11/09 03:55:29;;;;;;;2.00;1.80;;;12.00;99.90;;;;;;496326;239;28546;-70
2022/11/09 03:57:30;;;;;;;1.73;1.30;;;12.00;99.90;;;;;;496321;239;27822;-71
2022/11/09 03:59:31;;;;;;;1.30;1.30;;;12.00;99.90;;;;;;496257;239;28101;-70
2022/11/09 04:01:33;;;;;;;1.20;1.20;;;11.90;99.90;;;;;;496169;239;28238;-70
2022/11/09 04:03:34;;;;;;;1.40;1.30;;;11.90;99.90;;;;;;496023;239;28322;-72
2022/11/09 04:05:35;;;;;;;1.40;1.30;;;11.90;99.90;;;;;;496277;239;28091;-70
2022/11/09 04:07:36;;;;;;;1.30;1.30;;;11.90;99.90;;;;;;496301;239;27975;-71
2022/11/09 04:09:38;;;;;;;1.40;1.30;;;11.90;99.90;;;;;;496277;239;28174;-70
2022/11/09 04:11:39;;;;;;;1.80;1.30;;;11.90;99.90;;;;;;496287;239;28233;-70
2022/11/09 04:13:40;;;;;;;1.60;1.40;;;11.90;99.90;;;;;;496298;239;28270;-71
2022/11/09 04:15:41;;;;;;;1.50;1.40;;;11.90;99.90;;;;;;496300;239;28568;-70
2022/11/09 04:17:46;;;;;;;1.50;1.40;;;11.90;99.90;;;;;;496304;239;28542;-70
2022/11/09 04:19:44;;;;;;;1.60;1.50;;;11.90;99.90;;;;;;495765;239;28511;-70
2022/11/09 04:21:45;;;;;;;1.97;1.67;;;11.90;99.90;;;;;;496298;239;28213;-70
2022/11/09 04:23:47;;;;;;;1.57;1.47;;;11.90;99.90;;;;;;496314;239;28066;-71
2022/11/09 04:25:48;;;;;;;1.67;1.57;;;11.90;99.90;;;;;;496305;239;27966;-69
2022/11/09 04:27:49;;;;;;;1.60;1.50;;;11.90;99.90;;;;;;496329;239;28053;-70
2022/11/09 04:29:50;;;;;;;1.50;1.40;;;11.90;99.90;;;;;;496296;239;28131;-70
2022/11/09 04:31:52;;;;;;;2.73;1.40;;;11.90;99.90;;;;;;496301;239;28011;-70
2022/11/09 04:33:53;;;;;;;1.50;1.40;;;11.90;99.90;;;;;;496297;239;28114;-70
2022/11/09 04:35:54;;;;;;;1.33;1.30;;;11.90;99.90;;;;;;496298;239;28391;-70
2022/11/09 04:37:55;;;;;;;1.60;1.50;;;11.90;99.90;;;;;;496303;239;28277;-71
2022/11/09 04:39:57;;;;;;;1.33;1.30;;;12.00;99.90;;;;;;496338;239;28510;-71
2022/11/09 04:41:58;;;;;;;1.70;1.60;;;12.00;99.90;;;;;;496295;239;28510;-70
2022/11/09 04:43:59;;;;;;;1.77;1.60;;;11.90;99.90;;;;;;496313;239;28429;-71
2022/11/09 04:46:00;;;;;;;1.60;1.50;;;12.00;99.90;;;;;;496317;239;28348;-70
2022/11/09 04:48:02;;;;;;;1.77;1.60;;;11.90;99.90;;;;;;496136;239;28003;-70
2022/11/09 04:50:03;;;;;;;2.20;1.60;;;11.90;99.90;;;;;;496324;239;28200;-70
2022/11/09 04:52:04;;;;;;;1.40;1.40;;;11.90;99.90;;;;;;496329;239;28299;-70
2022/11/09 04:54:05;;;;;;;1.60;1.50;;;11.90;99.90;;;;;;496326;239;28095;-71
2022/11/09 04:56:07;;;;;;;1.80;1.70;;;11.90;99.90;;;;;;496324;239;28170;-70
2022/11/09 04:58:08;;;;;;;2.60;2.03;;;11.90;99.90;;;;;;496339;239;28204;-71
2022/11/09 05:00:09;;;;;;;3.43;2.20;;;11.90;99.90;;;;;;496345;239;28270;-70
2022/11/09 05:02:10;;;;;;;1.70;1.60;;;11.90;99.90;;;;;;496323;239;28034;-70
2022/11/09 05:04:12;;;;;;;2.70;1.77;;;11.90;99.90;;;;;;496324;239;28207;-71
2022/11/09 05:06:31;;;;;;;1.80;1.70;;;12.00;99.90;;;;;;496313;239;28598;-70
2022/11/09 05:08:33;;;;;;;1.70;1.60;;;11.90;99.90;;;;;;496351;239;28091;-70
2022/11/09 05:10:34;;;;;;;2.40;1.80;;;11.90;99.90;;;;;;496352;239;27990;-70
2022/11/09 05:12:35;;;;;;;1.90;1.70;;;12.00;99.90;;;;;;496361;239;28106;-70
2022/11/09 05:14:36;;;;;;;1.40;1.40;;;11.90;99.90;;;;;;496348;239;28219;-71
2022/11/09 05:16:38;;;;;;;2.07;1.97;;;11.90;99.90;;;;;;496338;239;28117;-71
2022/11/09 05:18:39;;;;;;;2.37;2.17;;;11.90;99.90;;;;;;496260;239;28203;-70
2022/11/09 05:20:40;;;;;;;1.80;1.70;;;12.00;99.90;;;;;;496334;239;28360;-70
2022/11/09 05:25:01;;;;;;;1.60;1.60;;;11.90;99.90;;;;;;496342;239;28247;-70
2022/11/09 05:27:03;;;;;;;1.70;1.63;;;11.90;99.90;;;;;;496251;239;28059;-70
2022/11/09 05:29:04;;;;;;;1.80;1.70;;;11.90;99.90;;;;;;496190;239;28064;-70
2022/11/09 05:31:05;;;;;;;2.13;1.90;;;11.90;99.90;;;;;;496238;239;27957;-70
2022/11/09 05:33:06;;;;;;;1.40;1.40;;;11.90;99.90;;;;;;496012;239;29101;-71
2022/11/09 05:35:07;;;;;;;1.80;1.70;;;11.90;99.90;;;;;;496300;239;28387;-70
2022/11/09 05:37:09;;;;;;;1.60;1.50;;;11.90;99.90;;;;;;496270;239;28547;-71
2022/11/09 05:39:10;;;;;;;1.40;1.40;;;11.90;99.90;;;;;;496267;239;28072;-70
2022/11/09 05:41:11;;;;;;;1.53;1.50;;;11.90;99.90;;;;;;496282;239;28112;-70
2022/11/09 05:43:12;;;;;;;1.70;1.60;;;11.90;99.90;;;;;;496315;239;28061;-70
2022/11/09 05:45:14;;;;;;;2.30;1.70;;;11.90;99.90;;;;;;496327;239;27809;-70
2022/11/09 05:47:15;;;;;;;1.70;1.60;;;11.90;99.90;;;;;;496353;239;28113;-71
2022/11/09 05:49:16;;;;;;;1.50;1.40;;;11.90;99.90;;;;;;496319;239;28282;-70
2022/11/09 05:51:17;;;;;;;1.30;1.30;;;11.90;99.90;;;;;;496330;239;28172;-70
2022/11/09 05:53:19;;;;;;;1.33;1.23;;;11.90;99.90;;;;;;496328;239;28437;-70
2022/11/09 05:55:20;;;;;;;1.40;1.30;;;11.90;99.90;;;;;;496307;239;28297;-70
2022/11/09 05:57:21;;;;;;;2.07;1.60;;;11.90;99.90;;;;;;496245;239;28710;-71
2022/11/09 05:59:22;;;;;;;1.40;1.40;;;11.90;99.90;;;;;;496314;239;28551;-69
2022/11/09 06:01:24;;;;;;;1.30;1.30;;;11.90;99.90;;;;;;496322;239;28467;-70
2022/11/09 06:03:25;;;;;;;1.53;1.43;;;11.90;99.90;;;;;;496303;239;28001;-70
2022/11/09 06:05:26;;;;;;;1.30;1.30;;;11.90;99.90;;;;;;496327;239;28063;-70
2022/11/09 06:07:27;;;;;;;2.27;1.13;;;11.90;99.90;;;;;;496329;239;28325;-70
2022/11/09 06:09:29;;;;;;;1.50;1.40;;;11.90;99.90;;;;;;496325;239;28149;-70
2022/11/09 06:11:30;;;;;;;1.20;1.20;;;11.80;99.90;;;;;;496314;239;28216;-70
2022/11/09 06:13:31;;;;;;;1.13;1.13;;;11.80;99.90;;;;;;496321;239;28104;-71
2022/11/09 06:15:32;;;;;;;3.43;1.40;;;11.80;99.90;;;;;;496322;239;28122;-70
2022/11/09 06:17:34;;;;;;;1.30;1.20;;;11.70;99.90;;;;;;496310;239;28104;-71
2022/11/09 06:19:35;;;;;;;1.13;1.10;;;11.70;99.90;;;;;;496321;239;28104;-70
2022/11/09 06:21:36;;;;;;;1.10;1.10;;;11.70;99.90;;;;;;496319;239;27995;-70
2022/11/09 06:23:37;;;;;;;1.40;1.40;;;11.70;99.90;;;;;;496324;239;27984;-71
2022/11/09 06:25:39;;;;;;;1.87;1.30;;;11.70;99.90;;;;;;496322;239;27946;-70
2022/11/09 06:27:40;;;;;;;1.20;1.20;;;11.60;99.90;;;;;;496325;239;28156;-71
2022/11/09 06:29:41;;;;;;;1.57;1.47;;;11.60;99.90;;;;;;496311;239;28179;-70
2022/11/09 06:31:42;;;;;;;1.20;1.20;;;11.60;99.90;;;;;;496278;239;28719;-70
2022/11/09 06:33:44;;;;;;;1.20;1.20;;;11.60;99.90;;;;;;496343;239;28478;-71
2022/11/09 06:35:45;;;;;;;1.20;1.20;;;11.60;99.90;;;;;;496333;239;28475;-69
2022/11/09 06:37:46;;;;;;;1.33;1.30;;;11.50;99.90;;;;;;496301;239;28429;-70
2022/11/09 06:39:47;;;;;;;1.10;1.10;;;11.50;99.90;;;;;;496345;239;27937;-70
2022/11/09 06:41:49;;;;;;;1.20;1.20;;;11.50;99.90;;;;;;496332;238;27993;-70
2022/11/09 06:43:50;;;;;;;1.20;1.20;;;11.40;99.90;;;;;;496339;239;27981;-71
2022/11/09 06:45:51;;;;;;;1.20;1.20;;;11.40;99.90;;;;;;496301;239;27892;-70
2022/11/09 06:47:52;;;;;;;1.37;1.37;;;11.40;99.90;;;;;;496315;239;27963;-71
2022/11/09 06:49:54;;;;;;;1.47;1.47;;;11.40;99.90;;;;;;496311;239;27932;-70
2022/11/09 06:51:55;;;;;;;1.27;1.27;;;11.40;99.90;;;;;;496246;239;27854;-70
2022/11/09 06:53:56;;;;;;;1.40;1.30;;;11.40;99.90;;;;;;496247;239;27868;-70
2022/11/09 06:55:57;;;;;;;1.20;1.20;;;11.40;99.90;;;;;;496155;239;27993;-71
2022/11/09 06:57:59;;;;;;;1.50;1.40;;;11.40;99.90;;;;;;496090;239;28094;-70
2022/11/09 07:00:00;;;;;;;1.47;1.47;;;11.40;99.90;;;;;;496032;239;27929;-70
2022/11/09 07:02:01;;;;;;;1.40;1.30;;;11.40;99.90;;;;;;496282;239;28028;-70
2022/11/09 07:04:02;;;;;;;1.40;1.40;;;11.30;99.90;;;;;;496321;239;27876;-71
2022/11/09 07:06:04;;;;;;;1.37;1.27;;;11.30;99.90;;;;;;496319;239;27938;-70
2022/11/09 07:08:05;;;;;;;1.43;1.33;;;11.40;99.90;;;;;;496301;239;28663;-70
2022/11/09 07:10:06;;;;;;;1.47;1.40;;;11.40;99.90;;;;;;496352;239;29257;-70
2022/11/09 07:12:07;;;;;;;1.67;1.20;;;11.40;99.90;;;;;;496315;239;28387;-70
2022/11/09 07:14:09;;;;;;;1.20;1.20;;;11.40;99.90;;;;;;496324;239;28653;-71
2022/11/09 07:16:11;;;;;;;1.20;1.20;;;11.40;99.90;;;;;;496288;239;27976;-70
2022/11/09 07:18:12;;;;;;;1.50;1.50;;;11.40;99.90;;;;;;496299;239;28581;-70
2022/11/09 07:20:13;;;;;;;1.30;1.30;;;11.50;99.90;;;;;;496333;239;28570;-70
2022/11/09 07:22:14;;;;;;;1.20;1.20;;;11.40;99.90;;;;;;496167;239;27846;-70
2022/11/09 07:24:15;;;;;;;1.30;1.30;;;11.40;99.90;;;;;;496313;239;27990;-70
2022/11/09 07:26:16;;;;;;;1.20;1.20;;;11.40;99.90;;;;;;496310;239;27962;-70
2022/11/09 07:28:18;;;;;;;1.60;1.50;;;11.40;99.90;;;;;;496300;239;28070;-70
2022/11/09 07:30:19;;;;;;;1.53;1.50;;;11.50;99.90;;;;;;496303;239;28512;-71
2022/11/09 07:32:20;;;;;;;1.27;1.27;;;11.40;99.90;;;;;;496311;239;28501;-70
2022/11/09 07:34:21;;;;;;;1.23;1.23;;;11.40;99.90;;;;;;496317;239;28613;-70
2022/11/09 07:36:23;;;;;;;1.60;1.50;;;11.40;99.90;;;;;;496318;239;28563;-69
2022/11/09 07:38:24;;;;;;;1.30;1.30;;;11.40;99.90;;;;;;496301;239;27856;-70
2022/11/09 07:40:25;;;;;;;1.60;1.50;;;11.50;99.90;;;;;;496319;239;27978;-71
2022/11/09 07:42:26;;;;;;;1.57;1.47;;;11.50;99.90;;;;;;496315;239;27935;-70
2022/11/09 07:44:28;;;;;;;1.20;1.20;;;11.50;99.90;;;;;;496274;239;28008;-70
2022/11/09 07:46:29;;;;;;;1.23;1.17;;;11.50;99.90;;;;;;496287;239;27931;-70
2022/11/09 07:48:30;;;;;;;1.37;1.37;;;11.50;99.90;;;;;;496298;239;28054;-70
2022/11/09 07:50:31;;;;;;;1.43;1.43;;;11.40;99.90;;;;;;496326;239;28082;-71
2022/11/09 07:52:33;;;;;;;1.10;1.00;;;11.40;99.90;;;;;;496305;239;28063;-70
2022/11/09 07:54:35;;;;;;;1.10;1.10;;;11.40;99.90;;;;;;496303;239;28115;-70
2022/11/09 07:56:35;;;;;;;1.33;1.20;;;11.40;99.90;;;;;;496302;239;28389;-70
2022/11/09 07:58:37;;;;;;;1.20;1.10;;;11.40;99.90;;;;;;496315;239;28771;-70
2022/11/09 08:00:38;;;;;;;1.00;1.00;;;11.40;99.90;;;;;;496296;239;28645;-71
2022/11/09 08:02:39;;;;;;;1.13;1.13;;;11.40;99.90;;;;;;496311;239;28007;-70
2022/11/09 08:04:40;;;;;;;1.10;1.10;;;11.50;99.90;;;;;;496308;239;28142;-70
2022/11/09 08:06:42;;;;;;;1.20;1.10;;;11.50;99.90;;;;;;496302;239;27943;-70
2022/11/09 08:08:43;;;;;;;2.40;1.23;;;11.50;99.90;;;;;;496323;239;28010;-70
2022/11/09 08:10:50;;;;;;;1.47;1.37;;;11.50;99.90;;;;;;496271;239;27848;-70
2022/11/09 08:12:46;;;;;;;1.30;1.20;;;11.50;99.90;;;;;;495809;239;27916;-70
2022/11/09 08:14:47;;;;;;;1.30;1.20;;;11.50;99.90;;;;;;496244;239;28154;-70
2022/11/09 08:16:48;;;;;;;1.10;1.10;;;11.50;99.90;;;;;;496310;239;27815;-70
2022/11/09 08:18:49;;;;;;;1.10;1.00;;;11.60;99.90;;;;;;496320;239;27970;-70
2022/11/09 08:20:50;;;;;;;1.30;1.20;;;11.60;99.90;;;;;;496332;239;28377;-70
2022/11/09 08:22:52;;;;;;;1.33;1.20;;;11.70;99.90;;;;;;496352;239;28432;-70
2022/11/09 08:24:53;;;;;;;1.10;1.10;;;11.70;99.90;;;;;;496364;239;28427;-71
2022/11/09 08:26:54;;;;;;;1.47;1.10;;;11.80;99.90;;;;;;496379;239;28532;-70
2022/11/09 08:28:55;;;;;;;1.17;0.90;;;11.80;99.90;;;;;;496351;239;27937;-70
2022/11/09 08:30:57;;;;;;;1.10;1.00;;;11.80;99.90;;;;;;496373;239;28100;-70
2022/11/09 08:32:58;;;;;;;1.20;1.20;;;11.80;99.90;;;;;;496370;239;28160;-70
2022/11/09 08:34:59;;;;;;;1.03;1.03;;;11.80;99.90;;;;;;496369;239;28101;-70
2022/11/09 08:37:01;;;;;;;0.90;0.90;;;11.80;99.90;;;;;;496362;239;28059;-71
2022/11/09 08:39:02;;;;;;;1.40;1.30;;;11.70;99.90;;;;;;496375;239;28079;-70
2022/11/09 08:41:03;;;;;;;1.10;1.10;;;11.70;99.90;;;;;;496367;239;28184;-70
2022/11/09 08:43:04;;;;;;;2.27;1.10;;;11.70;99.90;;;;;;496349;239;28154;-69
2022/11/09 08:45:05;;;;;;;1.93;1.50;;;11.60;99.90;;;;;;496346;239;28584;-71
2022/11/09 08:47:07;;;;;;;1.00;1.00;;;11.60;99.90;;;;;;496361;238;28719;-71
2022/11/09 08:49:08;;;;;;;1.13;1.00;;;11.70;99.90;;;;;;496375;239;28534;-70
2022/11/09 08:51:09;;;;;;;1.80;1.10;;;11.70;99.90;;;;;;496366;239;28438;-70
2022/11/09 08:53:10;;;;;;;1.10;1.00;;;11.80;99.90;;;;;;496335;239;27941;-70
2022/11/09 08:55:12;;;;;;;1.10;1.07;;;11.70;99.90;;;;;;496357;239;28030;-70
2022/11/09 08:57:13;;;;;;;1.13;1.03;;;11.70;99.90;;;;;;496351;239;28105;-70
2022/11/09 08:59:14;;;;;;;2.10;1.37;;;11.80;99.90;;;;;;496347;239;28269;-71
2022/11/09 09:01:16;;;;;;;1.67;1.13;;;11.90;99.90;;;;;;496361;239;28318;-70
2022/11/09 09:03:17;;;;;;;1.23;1.13;;;11.90;99.90;;;;;;496355;239;28245;-70
2022/11/09 09:05:18;;;;;;;4.40;1.30;;;11.90;99.90;;;;;;496333;239;28305;-69
2022/11/09 09:07:19;;;;;;;1.67;1.20;;;12.00;99.90;;;;;;496346;239;28533;-69
2022/11/09 09:09:20;;;;;;;1.63;1.00;;;12.00;99.90;;;;;;496352;239;28051;-70
2022/11/09 09:11:22;;;;;;;1.37;1.00;;;12.10;99.90;;;;;;496351;239;28604;-70
2022/11/09 09:13:23;;;;;;;1.50;1.40;;;12.20;99.90;;;;;;496347;239;28824;-70
2022/11/09 09:15:24;;;;;;;1.37;1.27;;;12.20;99.90;;;;;;496351;239;28780;-69
2022/11/09 09:17:25;;;;;;;1.10;1.10;;;12.30;99.90;;;;;;496349;239;28256;-70
2022/11/09 09:19:27;;;;;;;1.50;1.10;;;12.30;99.90;;;;;;496362;239;28036;-70
2022/11/09 09:21:28;;;;;;;1.20;1.10;;;12.30;99.90;;;;;;496352;239;28319;-70
2022/11/09 09:23:29;;;;;;;1.10;1.10;;;12.40;99.90;;;;;;496360;239;28257;-69
2022/11/09 09:25:32;;;;;;;1.20;1.10;;;;;;;;;;496339;239;28423;-70
2022/11/09 09:27:33;;;;;;;2.30;1.47;;;12.50;99.90;;;;;;496353;239;27778;-69
2022/11/09 09:29:34;;;;;;;1.80;1.70;;;12.40;99.90;;;;;;496275;239;28157;-70
2022/11/09 09:31:35;;;;;;;1.77;1.20;;;12.40;99.90;;;;;;496375;239;28048;-69
2022/11/09 09:33:37;;;;;;;1.30;1.20;;;12.40;99.90;;;;;;496338;239;28206;-69
2022/11/09 09:35:38;;;;;;;1.10;1.10;;;12.50;99.90;;;;;;496319;239;28476;-70
2022/11/09 09:37:40;;;;;;;1.27;1.27;;;;;;;;;;496264;239;28159;-70
2022/11/09 09:39:41;;;;;;;1.30;1.30;;;12.60;99.90;;;;;;496330;239;27613;-70
2022/11/09 09:41:43;;;;;;;3.77;1.30;;;12.70;99.90;;;;;;496316;239;28290;-70
2022/11/09 09:43:44;;;;;;;1.10;1.10;;;12.80;99.90;;;;;;496289;239;28503;-70
2022/11/09 09:45:45;;;;;;;2.97;1.40;;;12.80;99.90;;;;;;496331;239;28047;-71
2022/11/09 09:47:46;;;;;;;3.43;1.10;;;12.80;99.90;;;;;;496336;239;28912;-70
2022/11/09 09:49:48;;;;;;;1.23;1.10;;;12.80;99.90;;;;;;496360;239;28174;-70
2022/11/09 09:51:49;;;;;;;1.23;1.20;;;12.80;99.90;;;;;;496335;239;28403;-70
2022/11/09 09:53:50;;;;;;;1.50;1.40;;;12.80;99.90;;;;;;496339;239;28843;-71
2022/11/09 09:55:51;;;;;;;1.27;1.23;;;12.80;99.90;;;;;;496319;239;28915;-70
2022/11/09 09:57:53;;;;;;;1.40;1.30;;;12.80;99.90;;;;;;496300;239;29097;-70
2022/11/09 09:59:54;;;;;;;3.77;1.53;;;12.90;99.90;;;;;;496325;239;28931;-70
2022/11/09 10:01:57;;;;;;;4.43;1.47;;;12.90;99.90;;;;;;496316;239;28807;-71
2022/11/09 10:03:56;;;;;;;1.60;1.50;;;12.90;99.90;;;;;;496221;239;28442;-71
2022/11/09 10:05:58;;;;;;;2.00;1.50;;;12.90;99.90;;;;;;496296;239;28501;-70
2022/11/09 10:07:59;;;;;;;3.17;1.80;;;12.90;99.90;;;;;;496316;239;28526;-70
2022/11/09 10:10:00;;;;;;;2.67;1.50;;;12.90;99.90;;;;;;496332;239;28508;-70
2022/11/09 10:12:01;;;;;;;1.40;1.30;;;13.00;99.90;;;;;;496315;239;28856;-71
2022/11/09 10:14:03;;;;;;;2.40;2.03;;;13.10;99.90;;;;;;496328;239;28638;-71
2022/11/09 10:16:04;;;;;;;2.40;1.83;;;13.10;99.90;;;;;;496315;239;28802;-70
2022/11/09 10:18:05;;;;;;;3.13;1.50;;;13.10;99.90;;;;;;496261;239;29234;-70
2022/11/09 10:20:07;;;;;;;2.13;1.33;;;13.10;99.90;;;;;;496324;239;28785;-70
2022/11/09 10:22:08;;;;;;;3.00;1.50;;;13.10;99.90;;;;;;496325;239;28728;-71
2022/11/09 10:24:09;;;;;;;1.43;1.30;;;13.10;99.90;;;;;;496275;239;28798;-71
2022/11/09 10:26:10;;;;;;;1.30;1.20;;;13.00;99.90;;;;;;496308;239;28917;-70
2022/11/09 10:28:12;;;;;;;7.57;2.60;;;13.00;99.90;;;;;;496293;239;28393;-71
2022/11/09 10:30:13;;;;;;;2.03;1.60;;;13.00;99.90;;;;;;496305;239;28319;-70
2022/11/09 10:32:14;;;;;;;3.50;1.80;;;12.90;99.90;;;;;;496268;239;28499;-70
2022/11/09 10:34:15;;;;;;;2.30;1.40;;;13.00;99.90;;;;;;496327;239;28850;-71